Terminal Aerodrome Forecast
Issued by NWS

Home | Current Version | Previous Version | Text Only | Print | Product List | Glossary Off
Versions: 1 2 3 4 5 6 7 8 9 10 11 12 13

196
FTUS45 KRIW 040541
TAFBPI
TAF
KBPI 040541Z 0406/0506 VRB06KT P6SM FEW025 SCT040
     FM041200 VRB06KT 6SM -SN SCT025 OVC050 WS020/28030KT
     FM042000 25007KT 4SM -SN OVC025 WS018/26040KT
     FM050300 26012G18KT P6SM VCSH SCT025 BKN050 WS018/27045KT=

USA.gov is the U.S. government's official web portal to all federal, state and local government web resources and services.